Time;durP1;ratioP1;P1;durP2;ratioP2;P2;SDS_P1;SDS_P2;PMS_P1;PMS_P2;Temp;Humidity;BMP_temperature;BMP_pressure;BME280_temperature;BME280_humidity;BME280_pressure;Samples;Min_cycle;Max_cycle;Signal;HPM_P1;HPM_P2
2021/03/21 00:00:45;;;;;;;8.50;4.43;;;;;;;-0.11;100.00;100072.05;1715313;83;21024;-71
2021/03/21 00:03:14;;;;;;;5.40;2.90;;;;;;;-0.14;100.00;100078.88;1715325;83;21457;-71
2021/03/21 00:05:42;;;;;;;4.63;3.60;;;;;;;-0.19;100.00;100073.89;1715553;83;20985;-70
2021/03/21 00:08:19;;;;;;;5.77;3.77;;;;;;;-0.24;100.00;100064.88;1790025;78;21024;-72
2021/03/21 00:10:51;;;;;;;10.17;5.07;;;;;;;-0.26;100.00;100071.27;1821338;78;21068;-72
2021/03/21 00:13:20;;;;;;;8.70;4.97;;;;;;;-0.32;100.00;100065.88;1821320;78;20985;-72
2021/03/21 00:15:48;;;;;;;7.90;4.57;;;;;;;-0.34;100.00;100070.42;1821402;78;21795;-72
2021/03/21 00:18:19;;;;;;;8.13;4.67;;;;;;;-0.38;100.00;100072.91;1821055;78;21005;-72
2021/03/21 00:20:46;;;;;;;5.07;3.20;;;;;;;-0.40;100.00;100069.02;1820945;78;21545;-72
2021/03/21 00:23:16;;;;;;;5.20;3.90;;;;;;;-0.42;100.00;100062.97;1821143;76;20972;-72
2021/03/21 00:25:43;;;;;;;8.97;5.10;;;;;;;-0.44;100.00;100069.34;1781787;80;21046;-72
2021/03/21 00:28:14;;;;;;;6.13;3.97;;;;;;;-0.48;100.00;100063.38;1820866;78;22057;-72
2021/03/21 00:30:45;;;;;;;8.33;4.93;;;;;;;-0.50;100.00;100061.27;1816326;78;20994;-71
2021/03/21 00:33:16;;;;;;;7.70;4.70;;;;;;;-0.54;100.00;100057.61;1781945;80;21151;-72
2021/03/21 00:35:44;;;;;;;6.40;3.50;;;;;;;-0.58;100.00;100055.62;1820846;78;20975;-72
2021/03/21 00:38:20;;;;;;;5.33;3.80;;;;;;;-0.62;100.00;100053.64;1820759;78;20976;-72
2021/03/21 00:40:48;;;;;;;4.60;3.13;;;;;;;-0.66;100.00;100044.15;1703779;83;21217;-73
2021/03/21 00:43:17;;;;;;;7.67;4.00;;;;;;;-0.69;100.00;100043.50;1663955;86;21028;-71
2021/03/21 00:45:45;;;;;;;4.63;2.97;;;;;;;-0.73;100.00;100048.16;1692124;84;21554;-72
2021/03/21 00:48:21;;;;;;;6.90;4.00;;;;;;;-0.77;100.00;100049.31;1704410;84;22409;-72
2021/03/21 00:50:49;;;;;;;6.67;3.37;;;;;;;-0.84;100.00;100044.86;1704411;84;21047;-72
2021/03/21 00:53:18;;;;;;;7.57;4.97;;;;;;;-0.89;100.00;100038.99;1704486;84;22090;-73
2021/03/21 00:55:48;;;;;;;5.73;4.33;;;;;;;-0.92;100.00;100042.31;1704376;84;21100;-72
2021/03/21 00:58:16;;;;;;;6.03;3.27;;;;;;;-0.97;100.00;100037.32;1704416;84;21257;-72
2021/03/21 01:00:50;;;;;;;4.40;2.70;;;;;;;-0.98;100.00;100040.42;1704379;84;21077;-72
2021/03/21 01:03:27;;;;;;;4.23;3.23;;;;;;;-0.94;100.00;100037.59;1890007;76;25441;-72
2021/03/21 01:06:03;;;;;;;9.23;5.00;;;;;;;-1.00;100.00;100041.00;1863368;77;20911;-72
2021/03/21 01:08:35;;;;;;;3.40;3.00;;;;;;;-1.03;100.00;100043.00;1864313;77;21367;-72
2021/03/21 01:11:16;;;;;;;7.70;4.57;;;;;;;-1.05;100.00;100041.77;1860683;77;21041;-72
2021/03/21 01:13:45;;;;;;;5.53;3.47;;;;;;;-1.10;100.00;100039.88;1860772;77;21729;-73
2021/03/21 01:16:23;;;;;;;3.60;2.73;;;;;;;-1.12;100.00;100035.62;1860775;77;20955;-72
2021/03/21 01:18:51;;;;;;;3.43;2.43;;;;;;;-1.13;100.00;100037.44;1792325;80;21101;-73
2021/03/21 01:21:20;;;;;;;4.20;2.87;;;;;;;-1.18;100.00;100035.06;1792209;80;21376;-73
2021/03/21 01:23:48;;;;;;;5.93;4.23;;;;;;;-1.21;100.00;100035.73;1792333;80;21589;-73
2021/03/21 01:26:18;;;;;;;8.27;4.97;;;;;;;-1.24;100.00;100032.80;1792174;80;21008;-72
2021/03/21 01:28:46;;;;;;;7.40;4.87;;;;;;;-1.25;100.00;100032.90;1792223;80;21000;-72
2021/03/21 01:31:17;;;;;;;7.83;4.20;;;;;;;-1.25;100.00;100034.22;1792298;80;21554;-72
2021/03/21 01:33:45;;;;;;;6.50;3.77;;;;;;;-1.28;100.00;100031.27;1792286;80;22121;-72
2021/03/21 01:36:17;;;;;;;7.57;4.77;;;;;;;-1.30;100.00;100031.84;1781303;79;20978;-72
2021/03/21 01:38:45;;;;;;;6.47;4.13;;;;;;;-1.31;100.00;100023.98;1778180;80;21669;-71
2021/03/21 01:41:19;;;;;;;5.27;3.93;;;;;;;-1.30;100.00;100032.33;1768726;80;21116;-73
2021/03/21 01:43:56;;;;;;;2.43;2.23;;;;;;;-1.28;100.00;100027.30;1844696;76;25401;-72
2021/03/21 01:46:41;;;;;;;2.33;2.10;;;;;;;-1.34;100.00;100027.20;1815187;78;20921;-72
2021/03/21 01:49:20;;;;;;;6.60;3.07;;;;;;;-1.35;100.00;100024.64;1815084;79;21364;-73
2021/03/21 01:51:48;;;;;;;4.50;3.37;;;;;;;-1.38;100.00;100020.84;1776952;79;21502;-72
2021/03/21 01:54:18;;;;;;;6.13;4.10;;;;;;;-1.40;100.00;100020.09;1776998;80;21051;-73
2021/03/21 01:56:46;;;;;;;6.00;3.93;;;;;;;-1.43;100.00;100018.50;1777029;80;21056;-72
2021/03/21 01:59:27;;;;;;;7.27;4.60;;;;;;;-1.45;100.00;100012.44;1751850;80;20942;-72
2021/03/21 02:01:58;;;;;;;5.00;3.50;;;;;;;-1.46;100.00;100014.70;1776957;80;21722;-72
2021/03/21 02:04:26;;;;;;;5.00;3.83;;;;;;;-1.45;100.00;100015.09;1776989;79;21041;-73
2021/03/21 02:07:02;;;;;;;5.20;4.67;;;;;;;-1.44;100.00;100011.96;1777109;80;21503;-73
2021/03/21 02:09:50;;;;;;;8.80;4.00;;;;;;;-1.45;100.00;100008.91;1777064;80;21005;-71
2021/03/21 02:12:40;;;;;;;6.17;3.77;;;;;;;-1.41;100.00;100011.78;1845047;75;26879;-72
2021/03/21 02:15:29;;;;;;;7.83;4.93;;;;;;;-1.44;100.00;100023.89;1815205;79;20984;-73
2021/03/21 02:18:46;;;;;;;5.07;3.67;;;;;;;-1.44;100.00;100015.94;1889796;76;25410;-72
2021/03/21 02:21:26;;;;;;;5.30;3.43;;;;;;;-1.48;100.00;100025.05;1860786;77;21018;-71
2021/03/21 02:24:38;;;;;;;3.73;2.87;;;;;;;-1.54;100.00;100016.52;1855716;77;21368;-73
2021/03/21 02:27:14;;;;;;;8.67;3.80;;;;;;;-1.57;100.00;100022.00;1860688;77;20990;-74
2021/03/21 02:29:59;;;;;;;5.97;2.80;;;;;;;-1.60;100.00;100020.85;1860729;77;20985;-73
2021/03/21 02:32:43;;;;;;;3.43;2.53;;;;;;;-1.63;100.00;100018.41;1860619;77;20994;-72
2021/03/21 02:35:43;;;;;;;2.92;2.45;;;;;;;-1.65;100.00;100022.08;1860890;77;26916;-72
2021/03/21 02:38:16;;;;;;;2.20;2.00;;;;;;;-1.68;100.00;100024.46;1860829;77;21365;-73
2021/03/21 02:40:56;;;;;;;2.73;2.33;;;;;;;-1.71;100.00;100021.99;1860544;77;21031;-73
2021/03/21 02:43:44;;;;;;;3.30;2.63;;;;;;;-1.73;100.00;100021.23;1860543;77;20985;-73
2021/03/21 02:46:31;;;;;;;6.00;3.77;;;;;;;-1.78;100.00;100024.64;1870448;76;21006;-73
2021/03/21 02:49:22;;;;;;;5.33;2.60;;;;;;;-1.81;100.00;100024.33;1846801;76;20958;-73
2021/03/21 02:52:02;;;;;;;3.37;3.03;;;;;;;-1.80;100.00;100020.75;1855406;75;25396;-73
2021/03/21 02:54:38;;;;;;;4.77;3.40;;;;;;;-1.88;100.00;100023.00;1827322;78;21579;-73
2021/03/21 02:57:11;;;;;;;4.33;2.87;;;;;;;-1.93;100.00;100025.94;1826943;78;22139;-72
2021/03/21 02:59:43;;;;;;;2.27;2.00;;;;;;;-1.96;100.00;100027.44;1790370;80;21615;-72
2021/03/21 03:02:18;;;;;;;7.33;3.90;;;;;;;-1.99;100.00;100029.42;1812020;78;21006;-73
2021/03/21 03:04:51;;;;;;;4.87;3.33;;;;;;;-2.00;100.00;100028.58;1826460;78;21571;-72
2021/03/21 03:07:30;;;;;;;5.93;3.70;;;;;;;-1.99;100.00;100026.29;1826450;78;21533;-73
2021/03/21 03:10:13;;;;;;;5.00;3.50;;;;;;;-1.97;100.00;100024.88;1826427;78;22246;-73
2021/03/21 03:12:58;;;;;;;9.78;4.15;;;;;;;-1.97;100.00;100030.18;1826466;78;21023;-73
2021/03/21 03:15:33;;;;;;;6.27;2.80;;;;;;;-1.90;100.00;100027.55;1845096;76;26902;-73
2021/03/21 03:18:19;;;;;;;5.47;3.50;;;;;;;-1.94;100.00;100024.70;1815231;79;21036;-73
2021/03/21 03:20:52;;;;;;;4.60;3.20;;;;;;;-1.93;100.00;100023.74;1815069;79;21199;-72
2021/03/21 03:23:34;;;;;;;6.83;4.57;;;;;;;-1.90;100.00;100028.86;1775489;79;21021;-72
2021/03/21 03:26:08;;;;;;;8.30;4.25;;;;;;;-1.92;100.00;100026.78;1775442;80;20934;-73
2021/03/21 03:29:06;;;;;;;5.87;3.87;;;;;;;-1.95;100.00;100027.84;1775404;80;21060;-73
2021/03/21 03:31:51;;;;;;;8.37;4.90;;;;;;;-1.92;100.00;100026.78;1845219;76;26493;-72
2021/03/21 03:34:19;;;;;;;6.67;4.00;;;;;;;-1.95;100.00;100024.31;1815136;79;21364;-72
2021/03/21 03:36:47;;;;;;;3.23;2.47;;;;;;;-1.94;100.00;100030.00;1815211;79;21276;-72
2021/03/21 03:39:14;;;;;;;1.97;1.87;;;;;;;-1.93;100.00;100031.69;1815149;78;21020;-72
2021/03/21 03:41:47;;;;;;;5.77;2.90;;;;;;;-1.95;100.00;100030.94;1815100;78;20972;-73
2021/03/21 03:44:47;;;;;;;2.27;1.77;;;;;;;-1.96;100.00;100035.88;1815314;79;21050;-74
2021/03/21 03:47:22;;;;;;;3.67;2.17;;;;;;;-1.98;100.00;100037.28;1809087;79;21065;-72
2021/03/21 03:50:00;;;;;;;4.63;2.90;;;;;;;-1.99;100.00;100033.40;1813451;78;21325;-73
2021/03/21 03:52:53;;;;;;;3.10;2.13;;;;;;;-2.03;100.00;100034.05;1813424;79;21132;-74
2021/03/21 03:55:50;;;;;;;2.85;2.30;;;;;;;-2.05;100.00;100030.65;1669643;84;21032;-72
2021/03/21 03:58:36;;;;;;;3.27;2.37;;;;;;;-2.07;100.00;100029.89;1668860;86;21067;-74
2021/03/21 04:01:10;;;;;;;2.73;2.37;;;;;;;-2.05;100.00;100029.32;1669323;86;21037;-73
2021/03/21 04:03:56;;;;;;;1.30;1.30;;;;;;;-2.00;100.00;100031.68;1845227;76;24765;-71
2021/03/21 04:07:05;;;;;;;2.30;2.10;;;;;;;-2.03;100.00;100032.73;1790459;78;21171;-72
2021/03/21 04:09:59;;;;;;;4.23;2.87;;;;;;;-2.00;100.00;100033.00;1790790;79;21322;-73
2021/03/21 04:12:33;;;;;;;1.87;1.63;;;;;;;-1.99;100.00;100028.94;1783412;80;21048;-72
2021/03/21 04:15:15;;;;;;;2.40;2.13;;;;;;;-1.92;100.00;100033.41;1846486;76;26777;-72
2021/03/21 04:18:01;;;;;;;3.43;2.80;;;;;;;-1.92;100.00;100032.09;1819320;79;20980;-73
2021/03/21 04:20:36;;;;;;;3.60;2.67;;;;;;;-1.86;100.00;100036.16;1815185;79;21379;-72
2021/03/21 04:23:28;;;;;;;5.97;3.90;;;;;;;-1.81;100.00;100043.37;1815148;78;20948;-71
2021/03/21 04:26:01;;;;;;;6.63;4.07;;;;;;;-1.77;100.00;100044.43;1810956;79;20936;-71
2021/03/21 04:28:43;;;;;;;5.15;3.20;;;;;;;-1.67;100.00;100043.87;1777342;79;21474;-73
2021/03/21 04:31:14;;;;;;;9.37;4.50;;;;;;;-1.59;100.00;100058.85;1776105;80;20949;-72
2021/03/21 04:33:54;;;;;;;10.93;5.87;;;;;;;-1.53;100.00;100056.66;1751622;80;21434;-72
2021/03/21 04:36:38;;;;;;;9.33;5.60;;;;;;;-1.49;100.00;100050.69;1845264;76;26818;-72
2021/03/21 04:39:10;;;;;;;8.93;4.33;;;;;;;-1.55;100.00;100049.27;1777105;79;21603;-72
2021/03/21 04:41:45;;;;;;;6.97;4.80;;;;;;;-1.55;100.00;100054.58;1777073;80;21456;-73
2021/03/21 04:44:35;;;;;;;9.50;6.20;;;;;;;-1.53;100.00;100055.33;1776824;80;21005;-73
2021/03/21 04:47:34;;;;;;;16.10;7.23;;;;;;;-1.46;100.00;100052.31;1829809;77;27927;-72
2021/03/21 04:50:03;;;;;;;7.42;4.12;;;;;;;-1.44;100.00;100060.55;1821688;78;21026;-72
2021/03/21 04:52:48;;;;;;;4.63;2.90;;;;;;;-1.37;100.00;100061.03;1782440;80;21548;-72
2021/03/21 04:55:42;;;;;;;5.17;3.13;;;;;;;-1.30;100.00;100069.47;1821463;78;21557;-72
2021/03/21 04:58:28;;;;;;;5.83;3.77;;;;;;;-1.23;100.00;100070.80;1719057;83;20953;-72
2021/03/21 05:01:14;;;;;;;13.80;6.33;;;;;;;-1.13;100.00;100075.04;1873638;76;27855;-71
2021/03/21 05:03:47;;;;;;;17.80;7.50;;;;;;;-1.10;100.00;100070.39;1749325;80;28052;-73
2021/03/21 05:06:23;;;;;;;11.87;5.20;;;;;;;-0.97;100.00;100067.36;1750236;82;21377;-72
2021/03/21 05:09:02;;;;;;;5.33;3.70;;;;;;;-0.87;100.00;100068.10;1850788;77;26804;-72
2021/03/21 05:11:39;;;;;;;8.47;4.03;;;;;;;-0.88;100.00;100069.06;1822948;78;21180;-72
2021/03/21 05:14:16;;;;;;;10.03;5.27;;;;;;;-0.86;100.00;100073.31;1823027;78;21800;-71
2021/03/21 05:17:01;;;;;;;12.03;5.93;;;;;;;-0.84;100.00;100071.41;1819001;78;20977;-72
2021/03/21 05:19:44;;;;;;;5.20;3.60;;;;;;;-0.82;100.00;100076.14;1819359;78;20914;-72
2021/03/21 05:22:49;;;;;;;16.80;7.93;;;;;;;-0.79;100.00;100071.97;1784335;80;21095;-73
2021/03/21 05:25:28;;;;;;;9.60;4.80;;;;;;;-0.75;100.00;100067.32;1784509;80;21024;-73
2021/03/21 05:28:03;;;;;;;14.37;7.10;;;;;;;-0.74;100.00;100080.11;1784432;80;21611;-73
2021/03/21 05:30:38;;;;;;;14.97;6.77;;;;;;;-0.69;100.00;100075.36;1845204;76;25426;-72
2021/03/21 05:33:06;;;;;;;15.67;8.20;;;;;;;-0.72;100.00;100069.79;1815152;79;21441;-72
2021/03/21 05:35:37;;;;;;;13.87;6.83;;;;;;;-0.70;100.00;100075.84;1784335;79;21269;-72
2021/03/21 05:38:42;;;;;;;15.97;7.47;;;;;;;-0.65;100.00;100079.55;1815199;78;20956;-72
2021/03/21 05:41:36;;;;;;;;;;;;;;;-0.61;100.00;100073.92;1846795;77;20954;-72
2021/03/21 05:44:52;;;;;;;14.13;7.33;;;;;;;-0.54;100.00;100076.20;1860827;77;20207;-72
2021/03/21 05:47:59;;;;;;;18.87;10.50;;;;;;;-0.49;100.00;100074.94;1762335;80;21020;-72
2021/03/21 05:50:42;;;;;;;28.57;13.53;;;;;;;-0.43;100.00;100071.88;1779050;79;21678;-72
2021/03/21 05:53:49;;;;;;;19.65;9.78;;;;;;;-0.34;100.00;100069.58;1782312;80;21051;-71
2021/03/21 05:56:45;;;;;;;26.73;11.17;;;;;;;-0.32;100.00;100066.34;1783044;80;20956;-72
2021/03/21 05:59:38;;;;;;;19.40;9.47;;;;;;;-0.30;100.00;100059.11;1714754;82;21173;-72
2021/03/21 06:02:53;;;;;;;20.95;10.78;;;;;;;-0.25;100.00;100071.17;1705900;84;21070;-71
2021/03/21 06:05:42;;;;;;;29.00;16.47;;;;;;;-0.17;100.00;100073.80;1705765;84;21401;-72
2021/03/21 06:08:53;;;;;;;35.87;19.60;;;;;;;-0.16;100.00;100064.39;1703434;81;21062;-72
2021/03/21 06:11:33;;;;;;;34.43;17.73;;;;;;;-0.17;100.00;100064.01;1705873;84;21146;-72
2021/03/21 06:14:34;;;;;;;32.13;15.43;;;;;;;-0.20;100.00;100059.73;1705615;84;21086;-70
2021/03/21 06:17:37;;;;;;;55.07;22.60;;;;;;;-0.16;100.00;100064.84;1873457;75;28405;-72
2021/03/21 06:20:26;;;;;;;27.30;12.87;;;;;;;-0.06;100.00;100060.14;1860685;77;20967;-71
2021/03/21 06:23:25;;;;;;;36.50;17.83;;;;;;;0.22;100.00;100059.62;1851953;76;26564;-72
2021/03/21 06:26:07;;;;;;;36.73;14.50;;;;;;;0.34;100.00;100063.27;1711226;83;21682;-72
2021/03/21 06:29:03;;;;;;;33.80;15.50;;;;;;;0.45;100.00;100065.18;1711550;83;21205;-70
2021/03/21 06:31:51;;;;;;;24.63;10.47;;;;;;;0.51;100.00;100062.95;1710408;83;21138;-72
2021/03/21 06:34:46;;;;;;;21.43;10.33;;;;;;;0.63;100.00;100059.06;1845192;76;26596;-71
2021/03/21 06:37:59;;;;;;;27.40;12.17;;;;;;;0.70;100.00;100061.66;1815339;79;20992;-71
2021/03/21 06:40:41;;;;;;;25.00;12.37;;;;;;;0.83;100.00;100058.49;1816913;79;21377;-71
2021/03/21 06:43:46;;;;;;;24.17;10.77;;;;;;;0.99;100.00;100055.59;1817507;79;21054;-71
2021/03/21 06:46:52;;;;;;;21.57;10.40;;;;;;;1.09;100.00;100049.15;1799045;78;20929;-71
2021/03/21 06:49:46;;;;;;;20.73;10.17;;;;;;;1.20;100.00;100047.04;1785478;80;21004;-71
2021/03/21 06:52:28;;;;;;;26.73;11.12;;;;;;;1.25;100.00;100044.41;1782115;80;20913;-72
2021/03/21 06:55:19;;;;;;;34.17;12.00;;;;;;;1.30;100.00;100038.75;1786138;80;21351;-70
2021/03/21 06:58:29;;;;;;;26.33;11.20;;;;;;;1.41;100.00;100028.16;1782518;80;21977;-70
2021/03/21 07:01:11;;;;;;;20.87;10.70;;;;;;;1.55;100.00;100027.63;1787503;78;20906;-71
2021/03/21 07:04:27;;;;;;;20.92;8.68;;;;;;;1.69;100.00;100026.13;1729673;81;21048;-70
2021/03/21 07:07:13;;;;;;;18.07;8.53;;;;;;;1.84;100.00;100027.65;1731434;83;20956;-71
2021/03/21 07:10:14;;;;;;;24.53;9.77;;;;;;;1.94;100.00;100018.95;1730608;81;21070;-71
2021/03/21 07:13:15;;;;;;;21.53;9.17;;;;;;;2.08;100.00;100012.91;1730012;82;21039;-71
2021/03/21 07:16:27;;;;;;;20.07;8.13;;;;;;;2.27;100.00;100012.36;1706865;83;20961;-72
2021/03/21 07:19:25;;;;;;;22.17;10.07;;;;;;;2.38;100.00;100004.02;1727346;83;20969;-71
2021/03/21 07:22:27;;;;;;;19.80;9.27;;;;;;;2.52;100.00;99997.60;1728113;83;20988;-72
2021/03/21 07:25:40;;;;;;;19.98;9.80;;;;;;;2.65;100.00;99996.48;1729893;82;21209;-71
2021/03/21 07:28:56;;;;;;;17.53;8.33;;;;;;;2.85;100.00;99991.38;1848295;76;26894;-72
2021/03/21 07:31:45;;;;;;;22.73;8.67;;;;;;;2.93;100.00;99989.45;1817712;79;20897;-72
2021/03/21 07:34:29;;;;;;;25.23;10.43;;;;;;;3.14;100.00;99988.20;1818079;79;21151;-70
2021/03/21 07:37:40;;;;;;;22.13;9.65;;;;;;;3.43;100.00;99991.15;1817301;78;20933;-71
2021/03/21 07:40:43;;;;;;;22.20;8.93;;;;;;;3.29;100.00;99984.27;1729570;83;21045;-70
2021/03/21 07:43:19;;;;;;;17.03;7.60;;;;;;;3.04;100.00;99984.92;1725617;83;21036;-71
2021/03/21 07:46:15;;;;;;;14.97;6.47;;;;;;;2.89;100.00;99982.67;1730418;82;21074;-71
2021/03/21 07:49:11;;;;;;;10.93;5.47;;;;;;;2.87;100.00;99974.77;1848269;76;26363;-72
2021/03/21 07:52:25;;;;;;;16.17;6.70;;;;;;;3.07;100.00;99979.00;1814110;77;20920;-72
2021/03/21 07:55:16;;;;;;;17.73;7.43;;;;;;;3.34;100.00;99975.38;1813237;79;21216;-72
2021/03/21 07:58:01;;;;;;;20.33;8.73;;;;;;;3.57;100.00;99972.14;1817384;79;20976;-73
2021/03/21 08:00:29;;;;;;;20.23;9.83;;;;;;;3.54;100.00;99965.73;1814923;79;21032;-75
2021/03/21 08:03:18;;;;;;;22.03;8.60;;;;;;;3.50;100.00;99959.42;1814383;79;21056;-71
2021/03/21 08:05:46;;;;;;;19.07;7.73;;;;;;;3.52;100.00;99951.62;1815461;79;20973;-73
2021/03/21 08:08:18;;;;;;;14.40;6.33;;;;;;;3.67;100.00;99952.67;1814913;78;21584;-72
2021/03/21 08:10:51;;;;;;;6.70;4.03;;;;;;;3.80;100.00;99951.98;1814901;77;21632;-72
2021/03/21 08:13:36;;;;;;;8.53;3.90;;;;;;;3.85;100.00;99950.27;1809528;79;21047;-73
2021/03/21 08:16:05;;;;;;;16.37;5.57;;;;;;;3.76;100.00;99947.39;1814464;79;20988;-72
2021/03/21 08:18:35;;;;;;;11.37;5.03;;;;;;;3.57;100.00;99947.23;1815203;77;21114;-72
2021/03/21 08:21:14;;;;;;;11.63;4.73;;;;;;;3.42;100.00;99941.36;1815037;78;21129;-72
2021/03/21 08:23:46;;;;;;;6.90;4.30;;;;;;;3.25;100.00;99944.08;1811560;79;21063;-75
2021/03/21 08:26:18;;;;;;;9.70;4.37;;;;;;;3.13;100.00;99949.09;1814431;79;21605;-75
2021/03/21 08:29:20;;;;;;;11.15;4.03;;;;;;;2.98;100.00;99949.38;1814672;79;21194;-74
2021/03/21 08:32:03;;;;;;;13.70;5.80;;;;;;;2.87;100.00;99945.39;1801292;78;21204;-73
2021/03/21 08:34:44;;;;;;;13.67;5.07;;;;;;;2.82;100.00;99938.23;1844815;76;26316;-73
2021/03/21 08:37:37;;;;;;;12.67;5.60;;;;;;;2.87;100.00;99941.39;1815236;79;20992;-72
2021/03/21 08:40:38;;;;;;;17.37;6.80;;;;;;;3.02;100.00;99940.13;1815492;77;22494;-73
2021/03/21 08:43:21;;;;;;;16.23;6.63;;;;;;;3.02;100.00;99938.79;1815108;79;21632;-74
2021/03/21 08:46:04;;;;;;;16.57;7.42;;;;;;;2.87;100.00;99934.71;1814659;78;21001;-72
2021/03/21 08:48:39;;;;;;;12.50;5.97;;;;;;;2.97;100.00;99935.64;1670081;84;21660;-73
2021/03/21 08:51:34;;;;;;;16.73;7.60;;;;;;;3.14;100.00;99937.44;1673416;85;21082;-72
2021/03/21 08:54:27;;;;;;;22.27;9.27;;;;;;;3.29;100.00;99929.48;1845142;76;26645;-72
2021/03/21 08:57:16;;;;;;;22.53;9.30;;;;;;;3.28;100.00;99927.80;1815353;79;20968;-72
2021/03/21 08:59:45;;;;;;;20.87;9.37;;;;;;;3.22;100.00;99927.82;1811037;77;22578;-72
2021/03/21 09:02:18;;;;;;;21.30;8.83;;;;;;;3.12;100.00;99916.69;1815207;79;20996;-72
2021/03/21 09:05:01;;;;;;;19.03;7.50;;;;;;;3.19;100.00;99909.86;1815272;79;20984;-72
2021/03/21 09:07:32;;;;;;;20.12;9.33;;;;;;;3.38;100.00;99906.02;1814507;79;20921;-70
2021/03/21 09:10:14;;;;;;;25.67;8.97;;;;;;;3.52;100.00;99909.34;1815481;79;20996;-75
2021/03/21 09:12:47;;;;;;;19.97;7.57;;;;;;;3.57;100.00;99913.81;1814821;78;21362;-74
2021/03/21 09:15:36;;;;;;;16.60;7.83;;;;;;;3.57;100.00;99907.13;1815120;77;21110;-75
2021/03/21 09:18:37;;;;;;;23.70;10.20;;;;;;;3.54;100.00;99916.27;1815200;79;21040;-73
2021/03/21 09:21:26;;;;;;;29.30;11.07;;;;;;;3.42;100.00;99915.47;1728313;81;21033;-71
2021/03/21 09:24:09;;;;;;;18.13;8.00;;;;;;;3.25;100.00;99920.02;1727830;81;21055;-72
2021/03/21 09:26:43;;;;;;;20.50;8.50;;;;;;;3.13;100.00;99915.20;1727274;83;22254;-72
2021/03/21 09:29:29;;;;;;;19.80;7.53;;;;;;;3.07;100.00;99915.72;1727394;83;21182;-72
2021/03/21 09:32:07;;;;;;;17.37;7.73;;;;;;;3.00;100.00;99915.86;1727923;83;21691;-73
2021/03/21 09:35:31;;;;;;;19.93;9.13;;;;;;;2.93;100.00;99911.50;1732999;81;21634;-73
2021/03/21 09:38:06;;;;;;;16.07;6.83;;;;;;;2.89;100.00;99903.88;1755673;81;21631;-71
2021/03/21 09:41:09;;;;;;;8.53;4.00;;;;;;;2.94;100.00;99898.52;1824451;77;26587;-73
2021/03/21 09:43:39;;;;;;;6.00;3.30;;;;;;;3.02;100.00;99901.39;1822186;78;20954;-71
2021/03/21 09:46:31;;;;;;;2.13;1.93;;;;;;;3.15;100.00;99895.03;1814175;77;21365;-72
2021/03/21 09:49:10;;;;;;;2.00;1.83;;;;;;;3.25;100.00;99893.80;1791605;79;21055;-72
2021/03/21 09:51:51;;;;;;;6.90;3.27;;;;;;;3.40;100.00;99897.38;1792655;79;21688;-71
2021/03/21 09:54:56;;;;;;;7.43;3.13;;;;;;;3.64;100.00;99890.09;1790474;79;21057;-71
2021/03/21 09:58:22;;;;;;;6.10;3.60;;;;;;;3.98;100.00;99884.89;1845271;76;26777;-72
2021/03/21 10:01:04;;;;;;;6.47;3.57;;;;;;;4.05;100.00;99887.02;1815055;77;21008;-72
2021/03/21 10:03:33;;;;;;;11.13;4.67;;;;;;;4.18;100.00;99876.46;1769861;78;22788;-72
2021/03/21 10:06:16;;;;;;;10.43;4.07;;;;;;;4.27;100.00;99877.48;1770003;81;20957;-73
2021/03/21 10:09:12;;;;;;;6.60;3.90;;;;;;;4.29;100.00;99867.48;1845148;76;26667;-72
2021/03/21 10:11:46;;;;;;;9.03;4.13;;;;;;;4.32;100.00;99877.06;1790390;79;21575;-72
2021/03/21 10:14:32;;;;;;;9.00;4.13;;;;;;;4.25;100.00;99874.10;1779402;80;21360;-73
2021/03/21 10:17:19;;;;;;;6.47;3.53;;;;;;;4.14;100.00;99871.03;1790604;80;21622;-73
2021/03/21 10:19:55;;;;;;;12.03;3.57;;;;;;;3.94;100.00;99866.55;1779391;80;21099;-73
2021/03/21 10:22:35;;;;;;;3.30;2.73;;;;;;;3.76;100.00;99861.80;1790487;80;21037;-73
2021/03/21 10:25:16;;;;;;;5.63;3.33;;;;;;;3.58;100.00;99856.70;1779454;80;21017;-72
2021/03/21 10:27:49;;;;;;;4.63;3.07;;;;;;;3.47;100.00;99854.08;1790592;80;22656;-75
2021/03/21 10:30:23;;;;;;;2.52;2.30;;;;;;;3.47;100.00;99856.28;1779506;80;21069;-73
2021/03/21 10:33:05;;;;;;;4.37;3.00;;;;;;;3.53;100.00;99852.23;1790585;78;21020;-72
2021/03/21 10:35:48;;;;;;;4.20;2.97;;;;;;;3.61;100.00;99855.95;1777792;80;21138;-73
2021/03/21 10:38:49;;;;;;;9.03;3.60;;;;;;;3.76;100.00;99848.93;1773098;81;21064;-71
2021/03/21 10:42:13;;;;;;;5.80;3.50;;;;;;;4.14;100.00;99839.39;1845167;76;26719;-74
2021/03/21 10:44:48;;;;;;;3.80;2.80;;;;;;;4.23;100.00;99838.56;1815086;79;20988;-73
2021/03/21 10:47:28;;;;;;;6.03;3.37;;;;;;;4.16;100.00;99842.77;1811747;79;21852;-73
2021/03/21 10:50:02;;;;;;;5.13;2.93;;;;;;;4.03;100.00;99843.50;1814573;78;21008;-72
2021/03/21 10:52:35;;;;;;;3.20;2.73;;;;;;;3.90;100.00;99837.05;1811564;79;20952;-73
2021/03/21 10:55:21;;;;;;;5.23;3.03;;;;;;;3.75;100.00;99835.19;1815163;78;21031;-72
2021/03/21 10:57:49;;;;;;;3.53;2.60;;;;;;;3.63;100.00;99838.45;1815103;79;21000;-73
2021/03/21 11:00:31;;;;;;;4.27;2.70;;;;;;;3.53;100.00;99827.67;1815243;79;22156;-72
2021/03/21 11:03:10;;;;;;;4.30;2.60;;;;;;;3.48;100.00;99833.06;1761224;81;21050;-73
2021/03/21 11:05:47;;;;;;;3.57;2.70;;;;;;;3.65;100.00;99829.80;1761565;81;21016;-72
2021/03/21 11:08:29;;;;;;;4.20;2.47;;;;;;;3.98;100.00;99820.69;1764971;81;20957;-72
2021/03/21 11:11:17;;;;;;;6.87;3.10;;;;;;;4.19;100.00;99812.56;1764942;81;21064;-72
2021/03/21 11:13:44;;;;;;;5.20;3.10;;;;;;;4.25;100.00;99817.03;1764664;81;21225;-72
2021/03/21 11:16:22;;;;;;;3.17;2.83;;;;;;;4.19;100.00;99817.08;1740160;81;20981;-72
2021/03/21 11:18:56;;;;;;;6.37;3.13;;;;;;;4.09;100.00;99804.16;1765124;81;21083;-72
2021/03/21 11:21:27;;;;;;;3.67;2.57;;;;;;;3.99;100.00;99804.13;1759050;81;20968;-73
2021/03/21 11:24:00;;;;;;;5.37;2.80;;;;;;;3.88;100.00;99794.84;1768308;81;20921;-71
2021/03/21 11:26:37;;;;;;;5.67;2.57;;;;;;;3.75;100.00;99794.60;1810896;77;26298;-72
2021/03/21 11:29:11;;;;;;;4.20;1.87;;;;;;;3.64;100.00;99800.52;1768578;80;21029;-73
2021/03/21 11:31:44;;;;;;;3.10;2.30;;;;;;;3.61;100.00;99801.14;1768454;81;21299;-72
2021/03/21 11:34:35;;;;;;;;;;;;;;;3.51;100.00;99798.05;1770897;81;21563;-75
2021/03/21 11:37:17;;;;;;;2.97;2.20;;;;;;;3.43;100.00;99800.03;1706415;83;20252;-74
2021/03/21 11:40:03;;;;;;;4.57;2.70;;;;;;;3.45;100.00;99786.53;1848640;76;26782;-73
2021/03/21 11:42:38;;;;;;;4.17;3.20;;;;;;;3.45;100.00;99789.21;1821576;78;20953;-72
2021/03/21 11:45:24;;;;;;;4.77;2.93;;;;;;;3.50;100.00;99785.66;1831388;77;21180;-72
2021/03/21 11:48:10;;;;;;;2.73;2.40;;;;;;;3.50;100.00;99792.34;1801955;79;20967;-73
2021/03/21 11:50:44;;;;;;;4.80;2.67;;;;;;;3.42;100.00;99784.98;1802190;79;21003;-73
2021/03/21 11:53:19;;;;;;;4.00;2.33;;;;;;;3.34;100.00;99781.61;1802119;79;20959;-73
2021/03/21 11:55:55;;;;;;;3.10;2.20;;;;;;;3.37;100.00;99781.86;1802072;79;20999;-73
2021/03/21 11:58:40;;;;;;;2.40;2.13;;;;;;;3.51;100.00;99770.83;1889923;76;26403;-72
2021/03/21 12:01:33;;;;;;;5.23;2.90;;;;;;;3.62;100.00;99773.91;1809435;79;20976;-72
2021/03/21 12:04:04;;;;;;;4.30;2.63;;;;;;;3.75;100.00;99771.00;1810257;79;22183;-71
2021/03/21 12:06:47;;;;;;;3.50;1.93;;;;;;;3.78;100.00;99760.05;1810564;79;20963;-71
2021/03/21 12:09:29;;;;;;;3.05;2.27;;;;;;;3.81;100.00;99754.44;1806892;79;21062;-72
2021/03/21 12:12:01;;;;;;;2.70;2.10;;;;;;;3.77;100.00;99752.52;1809482;79;21039;-72
2021/03/21 12:14:43;;;;;;;8.13;2.33;;;;;;;3.77;100.00;99744.97;1889847;76;26932;-72
2021/03/21 12:17:29;;;;;;;2.70;2.03;;;;;;;3.71;100.00;99746.86;1860742;77;20970;-72
2021/03/21 12:20:00;;;;;;;3.80;2.03;;;;;;;3.76;100.00;99750.81;1860746;77;21520;-73
2021/03/21 12:22:37;;;;;;;4.70;2.47;;;;;;;3.77;100.00;99745.83;1852192;77;21005;-73
2021/03/21 12:25:27;;;;;;;6.13;3.07;;;;;;;3.78;100.00;99750.69;1860713;77;21477;-73
2021/03/21 12:28:21;;;;;;;6.97;2.67;;;;;;;3.88;100.00;99743.55;1860691;77;20927;-72
2021/03/21 12:30:53;;;;;;;3.67;2.20;;;;;;;3.90;100.00;99740.24;1827740;77;20951;-72
2021/03/21 12:33:31;;;;;;;3.22;2.45;;;;;;;3.82;100.00;99740.56;1860780;77;21424;-73